sensor_id;sensor_type;location;lat;lon;timestamp;P1;durP1;ratioP1;P2;durP2;ratioP2
16270;SDS011;8243;49.048;8.396;2023-12-07T00:01:10;18.20;;;14.60;;
16270;SDS011;8243;49.048;8.396;2023-12-07T00:03:35;20.40;;;15.83;;
16270;SDS011;8243;49.048;8.396;2023-12-07T00:06:01;20.80;;;16.33;;
16270;SDS011;8243;49.048;8.396;2023-12-07T00:08:26;20.27;;;15.83;;
16270;SDS011;8243;49.048;8.396;2023-12-07T00:10:52;18.87;;;15.53;;
16270;SDS011;8243;49.048;8.396;2023-12-07T00:13:17;18.93;;;14.40;;
16270;SDS011;8243;49.048;8.396;2023-12-07T00:15:43;18.33;;;14.03;;
16270;SDS011;8243;49.048;8.396;2023-12-07T00:18:09;20.47;;;14.57;;
16270;SDS011;8243;49.048;8.396;2023-12-07T00:20:35;16.93;;;13.03;;
16270;SDS011;8243;49.048;8.396;2023-12-07T00:23:00;16.90;;;13.67;;
16270;SDS011;8243;49.048;8.396;2023-12-07T00:25:26;16.33;;;13.10;;
16270;SDS011;8243;49.048;8.396;2023-12-07T00:27:51;17.60;;;13.80;;
16270;SDS011;8243;49.048;8.396;2023-12-07T00:30:17;15.30;;;11.70;;
16270;SDS011;8243;49.048;8.396;2023-12-07T00:32:43;15.07;;;12.67;;
16270;SDS011;8243;49.048;8.396;2023-12-07T00:35:09;14.27;;;12.37;;
16270;SDS011;8243;49.048;8.396;2023-12-07T00:37:35;14.13;;;11.80;;
16270;SDS011;8243;49.048;8.396;2023-12-07T00:40:00;18.60;;;11.80;;
16270;SDS011;8243;49.048;8.396;2023-12-07T00:42:27;16.33;;;11.97;;
16270;SDS011;8243;49.048;8.396;2023-12-07T00:44:52;15.20;;;11.70;;
16270;SDS011;8243;49.048;8.396;2023-12-07T00:47:18;16.50;;;11.37;;
16270;SDS011;8243;49.048;8.396;2023-12-07T00:49:44;12.50;;;11.13;;
16270;SDS011;8243;49.048;8.396;2023-12-07T00:52:09;15.70;;;11.67;;
16270;SDS011;8243;49.048;8.396;2023-12-07T00:54:35;13.37;;;11.53;;
16270;SDS011;8243;49.048;8.396;2023-12-07T00:57:00;15.87;;;11.37;;
16270;SDS011;8243;49.048;8.396;2023-12-07T00:59:26;15.83;;;11.73;;
16270;SDS011;8243;49.048;8.396;2023-12-07T01:01:52;14.60;;;11.60;;
16270;SDS011;8243;49.048;8.396;2023-12-07T01:04:17;15.13;;;11.50;;
16270;SDS011;8243;49.048;8.396;2023-12-07T01:06:43;19.03;;;11.70;;
16270;SDS011;8243;49.048;8.396;2023-12-07T01:09:08;13.90;;;11.30;;
16270;SDS011;8243;49.048;8.396;2023-12-07T01:11:38;14.77;;;10.93;;
16270;SDS011;8243;49.048;8.396;2023-12-07T01:14:07;15.63;;;10.63;;
16270;SDS011;8243;49.048;8.396;2023-12-07T01:16:32;15.70;;;10.63;;
16270;SDS011;8243;49.048;8.396;2023-12-07T01:18:58;13.73;;;10.97;;
16270;SDS011;8243;49.048;8.396;2023-12-07T01:21:23;12.60;;;10.37;;
16270;SDS011;8243;49.048;8.396;2023-12-07T01:23:49;12.83;;;11.43;;
16270;SDS011;8243;49.048;8.396;2023-12-07T01:26:14;14.17;;;10.80;;
16270;SDS011;8243;49.048;8.396;2023-12-07T01:28:40;12.67;;;10.93;;
16270;SDS011;8243;49.048;8.396;2023-12-07T01:31:05;13.10;;;11.00;;
16270;SDS011;8243;49.048;8.396;2023-12-07T01:33:31;13.57;;;11.43;;
16270;SDS011;8243;49.048;8.396;2023-12-07T01:35:57;12.80;;;11.17;;
16270;SDS011;8243;49.048;8.396;2023-12-07T01:38:22;11.77;;;10.43;;
16270;SDS011;8243;49.048;8.396;2023-12-07T01:40:48;13.87;;;11.27;;
16270;SDS011;8243;49.048;8.396;2023-12-07T01:43:13;16.83;;;12.97;;
16270;SDS011;8243;49.048;8.396;2023-12-07T01:45:39;14.77;;;11.40;;
16270;SDS011;8243;49.048;8.396;2023-12-07T01:48:05;13.23;;;10.70;;
16270;SDS011;8243;49.048;8.396;2023-12-07T01:50:31;15.07;;;11.27;;
16270;SDS011;8243;49.048;8.396;2023-12-07T01:53:00;13.50;;;10.60;;
16270;SDS011;8243;49.048;8.396;2023-12-07T01:55:27;17.03;;;11.20;;
16270;SDS011;8243;49.048;8.396;2023-12-07T01:57:55;13.57;;;11.40;;
16270;SDS011;8243;49.048;8.396;2023-12-07T02:00:20;16.47;;;12.80;;
16270;SDS011;8243;49.048;8.396;2023-12-07T02:02:46;22.60;;;17.03;;
16270;SDS011;8243;49.048;8.396;2023-12-07T02:05:13;20.47;;;15.10;;
16270;SDS011;8243;49.048;8.396;2023-12-07T02:07:40;18.57;;;13.77;;
16270;SDS011;8243;49.048;8.396;2023-12-07T02:10:06;23.90;;;16.83;;
16270;SDS011;8243;49.048;8.396;2023-12-07T02:12:32;24.43;;;17.70;;
16270;SDS011;8243;49.048;8.396;2023-12-07T02:14:59;19.30;;;15.60;;
16270;SDS011;8243;49.048;8.396;2023-12-07T02:17:43;20.60;;;15.00;;
16270;SDS011;8243;49.048;8.396;2023-12-07T02:20:17;27.73;;;19.40;;
16270;SDS011;8243;49.048;8.396;2023-12-07T02:22:47;24.13;;;16.20;;
16270;SDS011;8243;49.048;8.396;2023-12-07T02:25:18;21.43;;;16.07;;
16270;SDS011;8243;49.048;8.396;2023-12-07T02:27:46;17.03;;;12.17;;
16270;SDS011;8243;49.048;8.396;2023-12-07T02:30:12;14.10;;;11.80;;
16270;SDS011;8243;49.048;8.396;2023-12-07T02:32:39;14.47;;;10.37;;
16270;SDS011;8243;49.048;8.396;2023-12-07T02:35:06;13.20;;;11.10;;
16270;SDS011;8243;49.048;8.396;2023-12-07T02:37:36;13.43;;;11.07;;
16270;SDS011;8243;49.048;8.396;2023-12-07T02:40:07;14.10;;;11.07;;
16270;SDS011;8243;49.048;8.396;2023-12-07T02:42:39;14.83;;;11.33;;
16270;SDS011;8243;49.048;8.396;2023-12-07T02:45:06;14.27;;;11.30;;
16270;SDS011;8243;49.048;8.396;2023-12-07T02:47:32;15.30;;;10.93;;
16270;SDS011;8243;49.048;8.396;2023-12-07T02:49:58;14.53;;;10.70;;
16270;SDS011;8243;49.048;8.396;2023-12-07T02:52:24;16.97;;;11.37;;
16270;SDS011;8243;49.048;8.396;2023-12-07T02:54:49;14.57;;;11.50;;
16270;SDS011;8243;49.048;8.396;2023-12-07T02:57:15;14.33;;;10.63;;
16270;SDS011;8243;49.048;8.396;2023-12-07T02:59:40;15.93;;;11.43;;
16270;SDS011;8243;49.048;8.396;2023-12-07T03:02:06;13.10;;;10.53;;
16270;SDS011;8243;49.048;8.396;2023-12-07T03:04:32;16.00;;;11.37;;
16270;SDS011;8243;49.048;8.396;2023-12-07T03:06:57;13.20;;;10.70;;
16270;SDS011;8243;49.048;8.396;2023-12-07T03:09:23;19.97;;;11.90;;
16270;SDS011;8243;49.048;8.396;2023-12-07T03:11:49;14.60;;;10.70;;
16270;SDS011;8243;49.048;8.396;2023-12-07T03:14:15;14.10;;;11.33;;
16270;SDS011;8243;49.048;8.396;2023-12-07T03:16:41;14.50;;;10.17;;
16270;SDS011;8243;49.048;8.396;2023-12-07T03:19:06;14.63;;;11.60;;
16270;SDS011;8243;49.048;8.396;2023-12-07T03:21:32;14.50;;;11.23;;
16270;SDS011;8243;49.048;8.396;2023-12-07T03:23:57;14.57;;;10.83;;
16270;SDS011;8243;49.048;8.396;2023-12-07T03:26:23;15.47;;;11.80;;
16270;SDS011;8243;49.048;8.396;2023-12-07T03:28:48;17.53;;;12.33;;
16270;SDS011;8243;49.048;8.396;2023-12-07T03:31:14;17.00;;;12.30;;
16270;SDS011;8243;49.048;8.396;2023-12-07T03:33:41;14.00;;;11.43;;
16270;SDS011;8243;49.048;8.396;2023-12-07T03:36:07;16.80;;;12.63;;
16270;SDS011;8243;49.048;8.396;2023-12-07T03:38:36;18.43;;;13.03;;
16270;SDS011;8243;49.048;8.396;2023-12-07T03:41:01;18.27;;;12.37;;
16270;SDS011;8243;49.048;8.396;2023-12-07T03:43:27;18.40;;;12.17;;
16270;SDS011;8243;49.048;8.396;2023-12-07T03:45:52;20.20;;;12.03;;
16270;SDS011;8243;49.048;8.396;2023-12-07T03:48:18;15.47;;;11.67;;
16270;SDS011;8243;49.048;8.396;2023-12-07T03:50:43;14.53;;;11.47;;
16270;SDS011;8243;49.048;8.396;2023-12-07T03:53:09;15.00;;;11.33;;
16270;SDS011;8243;49.048;8.396;2023-12-07T03:55:34;16.60;;;11.40;;
16270;SDS011;8243;49.048;8.396;2023-12-07T03:58:01;16.97;;;11.07;;
16270;SDS011;8243;49.048;8.396;2023-12-07T04:00:27;16.33;;;11.60;;
16270;SDS011;8243;49.048;8.396;2023-12-07T04:02:52;21.43;;;12.43;;
16270;SDS011;8243;49.048;8.396;2023-12-07T04:05:18;17.23;;;12.50;;
16270;SDS011;8243;49.048;8.396;2023-12-07T04:07:43;14.80;;;11.67;;
16270;SDS011;8243;49.048;8.396;2023-12-07T04:10:09;15.07;;;11.37;;
16270;SDS011;8243;49.048;8.396;2023-12-07T04:12:35;19.53;;;12.53;;
16270;SDS011;8243;49.048;8.396;2023-12-07T04:15:00;18.57;;;12.03;;
16270;SDS011;8243;49.048;8.396;2023-12-07T04:17:26;15.97;;;11.50;;
16270;SDS011;8243;49.048;8.396;2023-12-07T04:19:52;15.67;;;12.67;;
16270;SDS011;8243;49.048;8.396;2023-12-07T04:22:17;18.50;;;12.73;;
16270;SDS011;8243;49.048;8.396;2023-12-07T04:24:43;17.63;;;13.70;;
16270;SDS011;8243;49.048;8.396;2023-12-07T04:27:08;19.70;;;13.03;;
16270;SDS011;8243;49.048;8.396;2023-12-07T04:29:34;17.43;;;12.43;;
16270;SDS011;8243;49.048;8.396;2023-12-07T04:32:00;16.50;;;12.40;;
16270;SDS011;8243;49.048;8.396;2023-12-07T04:34:27;17.07;;;12.60;;
16270;SDS011;8243;49.048;8.396;2023-12-07T04:36:52;20.90;;;12.93;;
16270;SDS011;8243;49.048;8.396;2023-12-07T04:39:18;17.03;;;12.53;;
16270;SDS011;8243;49.048;8.396;2023-12-07T04:41:43;16.90;;;12.67;;
16270;SDS011;8243;49.048;8.396;2023-12-07T04:44:09;18.20;;;13.00;;
16270;SDS011;8243;49.048;8.396;2023-12-07T04:46:34;18.53;;;13.03;;
16270;SDS011;8243;49.048;8.396;2023-12-07T04:49:00;17.97;;;13.53;;
16270;SDS011;8243;49.048;8.396;2023-12-07T04:51:26;19.63;;;12.63;;
16270;SDS011;8243;49.048;8.396;2023-12-07T04:53:51;19.10;;;12.33;;
16270;SDS011;8243;49.048;8.396;2023-12-07T04:56:17;17.60;;;12.90;;
16270;SDS011;8243;49.048;8.396;2023-12-07T04:58:43;23.83;;;13.43;;
16270;SDS011;8243;49.048;8.396;2023-12-07T05:01:08;18.83;;;13.23;;
16270;SDS011;8243;49.048;8.396;2023-12-07T05:03:34;18.17;;;12.93;;
16270;SDS011;8243;49.048;8.396;2023-12-07T05:05:59;16.70;;;12.73;;
16270;SDS011;8243;49.048;8.396;2023-12-07T05:08:25;20.83;;;13.17;;
16270;SDS011;8243;49.048;8.396;2023-12-07T05:10:50;18.43;;;13.03;;
16270;SDS011;8243;49.048;8.396;2023-12-07T05:13:16;18.83;;;13.40;;
16270;SDS011;8243;49.048;8.396;2023-12-07T05:15:42;18.67;;;13.57;;
16270;SDS011;8243;49.048;8.396;2023-12-07T05:18:07;20.73;;;13.10;;
16270;SDS011;8243;49.048;8.396;2023-12-07T05:20:33;24.00;;;13.20;;
16270;SDS011;8243;49.048;8.396;2023-12-07T05:22:59;17.80;;;12.23;;
16270;SDS011;8243;49.048;8.396;2023-12-07T05:25:24;22.40;;;12.63;;
16270;SDS011;8243;49.048;8.396;2023-12-07T05:27:50;24.53;;;14.43;;
16270;SDS011;8243;49.048;8.396;2023-12-07T05:30:15;20.40;;;12.67;;
16270;SDS011;8243;49.048;8.396;2023-12-07T05:32:41;20.37;;;13.83;;
16270;SDS011;8243;49.048;8.396;2023-12-07T05:35:06;19.13;;;12.40;;
16270;SDS011;8243;49.048;8.396;2023-12-07T05:37:32;22.90;;;13.47;;
16270;SDS011;8243;49.048;8.396;2023-12-07T05:39:58;18.50;;;13.60;;
16270;SDS011;8243;49.048;8.396;2023-12-07T05:42:23;19.67;;;14.07;;
16270;SDS011;8243;49.048;8.396;2023-12-07T05:44:49;22.00;;;14.83;;
16270;SDS011;8243;49.048;8.396;2023-12-07T05:47:14;21.67;;;15.07;;
16270;SDS011;8243;49.048;8.396;2023-12-07T05:49:40;19.30;;;13.67;;
16270;SDS011;8243;49.048;8.396;2023-12-07T05:52:05;20.13;;;14.20;;
16270;SDS011;8243;49.048;8.396;2023-12-07T05:54:31;19.53;;;13.70;;
16270;SDS011;8243;49.048;8.396;2023-12-07T05:56:56;21.47;;;14.43;;
16270;SDS011;8243;49.048;8.396;2023-12-07T05:59:22;19.87;;;12.27;;
16270;SDS011;8243;49.048;8.396;2023-12-07T06:01:47;16.40;;;11.87;;
16270;SDS011;8243;49.048;8.396;2023-12-07T06:04:16;22.57;;;13.70;;
16270;SDS011;8243;49.048;8.396;2023-12-07T06:06:41;19.30;;;12.90;;
16270;SDS011;8243;49.048;8.396;2023-12-07T06:09:07;17.90;;;12.43;;
16270;SDS011;8243;49.048;8.396;2023-12-07T06:11:33;18.67;;;12.13;;
16270;SDS011;8243;49.048;8.396;2023-12-07T06:13:59;18.60;;;12.70;;
16270;SDS011;8243;49.048;8.396;2023-12-07T06:16:25;15.33;;;11.63;;
16270;SDS011;8243;49.048;8.396;2023-12-07T06:18:51;20.80;;;13.03;;
16270;SDS011;8243;49.048;8.396;2023-12-07T06:21:17;21.53;;;13.53;;
16270;SDS011;8243;49.048;8.396;2023-12-07T06:23:42;18.97;;;13.50;;
16270;SDS011;8243;49.048;8.396;2023-12-07T06:26:11;19.83;;;13.00;;
16270;SDS011;8243;49.048;8.396;2023-12-07T06:28:37;20.67;;;13.47;;
16270;SDS011;8243;49.048;8.396;2023-12-07T06:31:05;19.63;;;12.80;;
16270;SDS011;8243;49.048;8.396;2023-12-07T06:33:32;19.03;;;13.10;;
16270;SDS011;8243;49.048;8.396;2023-12-07T06:35:59;21.20;;;13.10;;
16270;SDS011;8243;49.048;8.396;2023-12-07T06:38:25;19.10;;;13.33;;
16270;SDS011;8243;49.048;8.396;2023-12-07T06:40:50;18.07;;;13.07;;
16270;SDS011;8243;49.048;8.396;2023-12-07T06:43:16;18.67;;;12.80;;
16270;SDS011;8243;49.048;8.396;2023-12-07T06:45:42;18.00;;;12.67;;
16270;SDS011;8243;49.048;8.396;2023-12-07T06:48:08;17.57;;;12.77;;
16270;SDS011;8243;49.048;8.396;2023-12-07T06:50:33;18.17;;;12.33;;
16270;SDS011;8243;49.048;8.396;2023-12-07T06:52:59;17.13;;;12.50;;
16270;SDS011;8243;49.048;8.396;2023-12-07T06:55:24;21.80;;;13.27;;
16270;SDS011;8243;49.048;8.396;2023-12-07T06:57:52;16.53;;;12.43;;
16270;SDS011;8243;49.048;8.396;2023-12-07T07:00:18;18.87;;;12.03;;
16270;SDS011;8243;49.048;8.396;2023-12-07T07:02:45;17.47;;;12.07;;
16270;SDS011;8243;49.048;8.396;2023-12-07T07:05:10;16.27;;;11.70;;
16270;SDS011;8243;49.048;8.396;2023-12-07T07:07:36;18.37;;;11.53;;
16270;SDS011;8243;49.048;8.396;2023-12-07T07:10:02;19.13;;;12.20;;
16270;SDS011;8243;49.048;8.396;2023-12-07T07:12:28;16.23;;;10.87;;
16270;SDS011;8243;49.048;8.396;2023-12-07T07:14:54;15.33;;;10.37;;
16270;SDS011;8243;49.048;8.396;2023-12-07T07:17:20;17.10;;;11.70;;
16270;SDS011;8243;49.048;8.396;2023-12-07T07:19:46;23.73;;;15.30;;
16270;SDS011;8243;49.048;8.396;2023-12-07T07:22:11;23.63;;;18.07;;
16270;SDS011;8243;49.048;8.396;2023-12-07T07:24:37;23.93;;;16.23;;
16270;SDS011;8243;49.048;8.396;2023-12-07T07:27:02;16.87;;;12.27;;
16270;SDS011;8243;49.048;8.396;2023-12-07T07:29:28;18.40;;;11.90;;
16270;SDS011;8243;49.048;8.396;2023-12-07T07:31:54;17.83;;;12.47;;
16270;SDS011;8243;49.048;8.396;2023-12-07T07:34:20;18.93;;;12.37;;
16270;SDS011;8243;49.048;8.396;2023-12-07T07:36:46;15.70;;;11.73;;
16270;SDS011;8243;49.048;8.396;2023-12-07T07:39:12;18.43;;;11.83;;
16270;SDS011;8243;49.048;8.396;2023-12-07T07:41:38;15.57;;;11.77;;
16270;SDS011;8243;49.048;8.396;2023-12-07T07:44:04;18.93;;;12.37;;
16270;SDS011;8243;49.048;8.396;2023-12-07T07:46:30;18.20;;;12.57;;
16270;SDS011;8243;49.048;8.396;2023-12-07T07:48:55;17.87;;;13.17;;
16270;SDS011;8243;49.048;8.396;2023-12-07T07:51:21;16.70;;;13.20;;
16270;SDS011;8243;49.048;8.396;2023-12-07T07:53:46;21.33;;;13.23;;
16270;SDS011;8243;49.048;8.396;2023-12-07T07:56:12;19.63;;;14.47;;
16270;SDS011;8243;49.048;8.396;2023-12-07T07:58:38;17.63;;;12.90;;
16270;SDS011;8243;49.048;8.396;2023-12-07T08:01:03;17.60;;;13.23;;
16270;SDS011;8243;49.048;8.396;2023-12-07T08:03:29;17.53;;;12.63;;
16270;SDS011;8243;49.048;8.396;2023-12-07T08:05:55;14.37;;;11.30;;
16270;SDS011;8243;49.048;8.396;2023-12-07T08:08:20;18.17;;;13.10;;
16270;SDS011;8243;49.048;8.396;2023-12-07T08:10:46;18.70;;;13.87;;
16270;SDS011;8243;49.048;8.396;2023-12-07T08:13:11;20.40;;;13.97;;
16270;SDS011;8243;49.048;8.396;2023-12-07T08:15:37;21.00;;;13.70;;
16270;SDS011;8243;49.048;8.396;2023-12-07T08:18:02;19.57;;;14.03;;
16270;SDS011;8243;49.048;8.396;2023-12-07T08:20:28;41.70;;;15.73;;
16270;SDS011;8243;49.048;8.396;2023-12-07T08:22:53;22.90;;;15.33;;
16270;SDS011;8243;49.048;8.396;2023-12-07T08:25:19;22.07;;;16.53;;
16270;SDS011;8243;49.048;8.396;2023-12-07T08:27:46;36.50;;;28.07;;
16270;SDS011;8243;49.048;8.396;2023-12-07T08:30:12;27.87;;;22.83;;
16270;SDS011;8243;49.048;8.396;2023-12-07T08:32:38;25.23;;;22.53;;
16270;SDS011;8243;49.048;8.396;2023-12-07T08:35:05;23.33;;;20.83;;
16270;SDS011;8243;49.048;8.396;2023-12-07T08:37:31;25.27;;;19.63;;
16270;SDS011;8243;49.048;8.396;2023-12-07T08:39:57;18.13;;;15.33;;
16270;SDS011;8243;49.048;8.396;2023-12-07T08:42:23;16.27;;;13.37;;
16270;SDS011;8243;49.048;8.396;2023-12-07T08:44:49;15.57;;;11.80;;
16270;SDS011;8243;49.048;8.396;2023-12-07T08:47:14;14.17;;;10.53;;
16270;SDS011;8243;49.048;8.396;2023-12-07T08:49:40;10.43;;;8.77;;
16270;SDS011;8243;49.048;8.396;2023-12-07T08:52:05;10.20;;;7.80;;
16270;SDS011;8243;49.048;8.396;2023-12-07T08:54:31;11.17;;;8.20;;
16270;SDS011;8243;49.048;8.396;2023-12-07T08:56:57;10.90;;;7.47;;
16270;SDS011;8243;49.048;8.396;2023-12-07T08:59:23;8.17;;;6.90;;
16270;SDS011;8243;49.048;8.396;2023-12-07T09:01:48;10.40;;;7.53;;
16270;SDS011;8243;49.048;8.396;2023-12-07T09:04:14;10.40;;;7.90;;
16270;SDS011;8243;49.048;8.396;2023-12-07T09:06:39;8.03;;;6.17;;
16270;SDS011;8243;49.048;8.396;2023-12-07T09:09:05;9.73;;;6.50;;
16270;SDS011;8243;49.048;8.396;2023-12-07T09:11:31;6.63;;;5.90;;
16270;SDS011;8243;49.048;8.396;2023-12-07T09:13:56;8.10;;;6.60;;
16270;SDS011;8243;49.048;8.396;2023-12-07T09:16:22;9.37;;;7.40;;
16270;SDS011;8243;49.048;8.396;2023-12-07T09:18:48;7.93;;;6.33;;
16270;SDS011;8243;49.048;8.396;2023-12-07T09:21:14;9.00;;;6.23;;
16270;SDS011;8243;49.048;8.396;2023-12-07T09:23:39;6.97;;;5.70;;
16270;SDS011;8243;49.048;8.396;2023-12-07T09:26:05;7.70;;;6.90;;
16270;SDS011;8243;49.048;8.396;2023-12-07T09:28:31;9.13;;;7.23;;
16270;SDS011;8243;49.048;8.396;2023-12-07T09:30:58;11.47;;;7.30;;
16270;SDS011;8243;49.048;8.396;2023-12-07T09:33:24;12.37;;;7.70;;
16270;SDS011;8243;49.048;8.396;2023-12-07T09:35:49;10.97;;;7.00;;
16270;SDS011;8243;49.048;8.396;2023-12-07T09:38:15;7.80;;;6.80;;
16270;SDS011;8243;49.048;8.396;2023-12-07T09:40:41;8.40;;;6.80;;
16270;SDS011;8243;49.048;8.396;2023-12-07T09:43:07;8.37;;;6.70;;
16270;SDS011;8243;49.048;8.396;2023-12-07T09:45:32;9.67;;;7.10;;
16270;SDS011;8243;49.048;8.396;2023-12-07T09:47:59;10.17;;;6.77;;
16270;SDS011;8243;49.048;8.396;2023-12-07T09:50:26;9.67;;;6.23;;
16270;SDS011;8243;49.048;8.396;2023-12-07T09:52:56;8.83;;;6.63;;
16270;SDS011;8243;49.048;8.396;2023-12-07T09:55:23;8.77;;;6.50;;
16270;SDS011;8243;49.048;8.396;2023-12-07T09:57:49;7.93;;;6.47;;
16270;SDS011;8243;49.048;8.396;2023-12-07T10:00:15;9.37;;;6.83;;
16270;SDS011;8243;49.048;8.396;2023-12-07T10:02:43;7.67;;;6.30;;
16270;SDS011;8243;49.048;8.396;2023-12-07T10:05:10;10.93;;;6.33;;
16270;SDS011;8243;49.048;8.396;2023-12-07T10:07:41;7.73;;;6.43;;
16270;SDS011;8243;49.048;8.396;2023-12-07T10:10:08;8.30;;;6.63;;
16270;SDS011;8243;49.048;8.396;2023-12-07T10:12:51;7.80;;;6.10;;
16270;SDS011;8243;49.048;8.396;2023-12-07T10:15:18;7.20;;;6.10;;
16270;SDS011;8243;49.048;8.396;2023-12-07T10:17:50;10.57;;;6.50;;
16270;SDS011;8243;49.048;8.396;2023-12-07T10:20:22;7.27;;;5.90;;
16270;SDS011;8243;49.048;8.396;2023-12-07T10:22:49;8.70;;;5.97;;
16270;SDS011;8243;49.048;8.396;2023-12-07T10:25:32;7.03;;;5.90;;
16270;SDS011;8243;49.048;8.396;2023-12-07T10:28:00;6.90;;;5.73;;
16270;SDS011;8243;49.048;8.396;2023-12-07T10:30:29;6.63;;;5.23;;
16270;SDS011;8243;49.048;8.396;2023-12-07T10:32:54;7.97;;;5.27;;
16270;SDS011;8243;49.048;8.396;2023-12-07T10:35:20;6.43;;;5.40;;
16270;SDS011;8243;49.048;8.396;2023-12-07T10:37:46;11.37;;;5.60;;
16270;SDS011;8243;49.048;8.396;2023-12-07T10:40:12;5.97;;;5.13;;
16270;SDS011;8243;49.048;8.396;2023-12-07T10:42:38;5.90;;;5.23;;
16270;SDS011;8243;49.048;8.396;2023-12-07T10:45:06;6.63;;;4.80;;
16270;SDS011;8243;49.048;8.396;2023-12-07T10:47:33;5.80;;;4.67;;
16270;SDS011;8243;49.048;8.396;2023-12-07T10:50:02;5.40;;;4.90;;
16270;SDS011;8243;49.048;8.396;2023-12-07T10:52:36;8.03;;;4.70;;
16270;SDS011;8243;49.048;8.396;2023-12-07T10:55:15;7.93;;;4.10;;
16270;SDS011;8243;49.048;8.396;2023-12-07T10:57:43;4.87;;;4.37;;
16270;SDS011;8243;49.048;8.396;2023-12-07T11:00:11;5.93;;;4.50;;
16270;SDS011;8243;49.048;8.396;2023-12-07T11:02:37;6.17;;;4.57;;
16270;SDS011;8243;49.048;8.396;2023-12-07T11:05:04;13.67;;;7.23;;
16270;SDS011;8243;49.048;8.396;2023-12-07T11:07:38;6.17;;;4.97;;
16270;SDS011;8243;49.048;8.396;2023-12-07T11:10:34;5.97;;;4.90;;
16270;SDS011;8243;49.048;8.396;2023-12-07T11:15:49;7.07;;;5.03;;
16270;SDS011;8243;49.048;8.396;2023-12-07T11:18:15;5.63;;;3.90;;
16270;SDS011;8243;49.048;8.396;2023-12-07T11:20:41;5.10;;;4.60;;
16270;SDS011;8243;49.048;8.396;2023-12-07T11:23:15;6.07;;;4.87;;
16270;SDS011;8243;49.048;8.396;2023-12-07T11:25:43;7.03;;;4.97;;
16270;SDS011;8243;49.048;8.396;2023-12-07T11:28:10;5.87;;;4.43;;
16270;SDS011;8243;49.048;8.396;2023-12-07T11:30:37;6.73;;;5.13;;
16270;SDS011;8243;49.048;8.396;2023-12-07T11:33:06;6.10;;;5.00;;
16270;SDS011;8243;49.048;8.396;2023-12-07T11:35:32;7.13;;;4.37;;
16270;SDS011;8243;49.048;8.396;2023-12-07T11:38:02;5.47;;;4.07;;
16270;SDS011;8243;49.048;8.396;2023-12-07T11:40:34;6.90;;;5.33;;
16270;SDS011;8243;49.048;8.396;2023-12-07T11:43:01;6.47;;;4.70;;
16270;SDS011;8243;49.048;8.396;2023-12-07T11:45:35;5.70;;;5.13;;
16270;SDS011;8243;49.048;8.396;2023-12-07T11:48:13;8.17;;;5.67;;
16270;SDS011;8243;49.048;8.396;2023-12-07T11:53:38;7.17;;;4.80;;
16270;SDS011;8243;49.048;8.396;2023-12-07T11:56:04;5.57;;;5.03;;
16270;SDS011;8243;49.048;8.396;2023-12-07T11:58:33;6.10;;;4.87;;
16270;SDS011;8243;49.048;8.396;2023-12-07T12:01:03;7.17;;;4.40;;
16270;SDS011;8243;49.048;8.396;2023-12-07T12:03:30;7.70;;;5.13;;
16270;SDS011;8243;49.048;8.396;2023-12-07T12:05:59;5.40;;;4.40;;
16270;SDS011;8243;49.048;8.396;2023-12-07T12:08:24;4.83;;;4.33;;
16270;SDS011;8243;49.048;8.396;2023-12-07T12:10:50;5.50;;;4.47;;
16270;SDS011;8243;49.048;8.396;2023-12-07T12:13:18;4.83;;;3.97;;
16270;SDS011;8243;49.048;8.396;2023-12-07T12:15:44;5.07;;;4.07;;
16270;SDS011;8243;49.048;8.396;2023-12-07T12:18:13;5.13;;;4.20;;
16270;SDS011;8243;49.048;8.396;2023-12-07T12:20:41;4.20;;;3.70;;
16270;SDS011;8243;49.048;8.396;2023-12-07T12:23:07;4.37;;;3.80;;
16270;SDS011;8243;49.048;8.396;2023-12-07T12:25:34;5.33;;;3.87;;
16270;SDS011;8243;49.048;8.396;2023-12-07T12:28:03;4.73;;;3.80;;
16270;SDS011;8243;49.048;8.396;2023-12-07T12:30:30;4.50;;;4.10;;
16270;SDS011;8243;49.048;8.396;2023-12-07T12:32:56;5.97;;;4.20;;
16270;SDS011;8243;49.048;8.396;2023-12-07T12:35:23;4.67;;;3.93;;
16270;SDS011;8243;49.048;8.396;2023-12-07T12:37:49;5.37;;;4.10;;
16270;SDS011;8243;49.048;8.396;2023-12-07T12:40:15;8.07;;;4.00;;
16270;SDS011;8243;49.048;8.396;2023-12-07T12:42:45;5.73;;;3.73;;
16270;SDS011;8243;49.048;8.396;2023-12-07T12:45:13;4.97;;;3.77;;
16270;SDS011;8243;49.048;8.396;2023-12-07T12:47:43;4.63;;;3.43;;
16270;SDS011;8243;49.048;8.396;2023-12-07T12:50:10;6.23;;;3.43;;
16270;SDS011;8243;49.048;8.396;2023-12-07T12:52:36;4.93;;;3.40;;
16270;SDS011;8243;49.048;8.396;2023-12-07T12:55:13;2.67;;;2.27;;
16270;SDS011;8243;49.048;8.396;2023-12-07T12:57:39;3.30;;;2.57;;
16270;SDS011;8243;49.048;8.396;2023-12-07T13:00:04;2.80;;;2.43;;
16270;SDS011;8243;49.048;8.396;2023-12-07T13:02:33;2.13;;;1.73;;
16270;SDS011;8243;49.048;8.396;2023-12-07T13:04:59;2.20;;;2.00;;
16270;SDS011;8243;49.048;8.396;2023-12-07T13:07:24;2.00;;;1.80;;
16270;SDS011;8243;49.048;8.396;2023-12-07T13:09:51;1.70;;;1.60;;
16270;SDS011;8243;49.048;8.396;2023-12-07T13:12:16;3.20;;;1.87;;
16270;SDS011;8243;49.048;8.396;2023-12-07T13:14:42;2.50;;;2.00;;
16270;SDS011;8243;49.048;8.396;2023-12-07T13:17:07;5.13;;;1.90;;
16270;SDS011;8243;49.048;8.396;2023-12-07T13:19:33;1.80;;;1.70;;
16270;SDS011;8243;49.048;8.396;2023-12-07T13:21:59;2.60;;;1.63;;
16270;SDS011;8243;49.048;8.396;2023-12-07T13:24:25;3.00;;;2.07;;
16270;SDS011;8243;49.048;8.396;2023-12-07T13:26:51;2.20;;;1.97;;
16270;SDS011;8243;49.048;8.396;2023-12-07T13:29:17;3.47;;;2.00;;
16270;SDS011;8243;49.048;8.396;2023-12-07T13:31:42;5.87;;;2.77;;
16270;SDS011;8243;49.048;8.396;2023-12-07T13:34:08;4.33;;;2.80;;
16270;SDS011;8243;49.048;8.396;2023-12-07T13:36:33;3.00;;;2.70;;
16270;SDS011;8243;49.048;8.396;2023-12-07T13:39:00;2.50;;;2.30;;
16270;SDS011;8243;49.048;8.396;2023-12-07T13:41:27;3.63;;;2.73;;
16270;SDS011;8243;49.048;8.396;2023-12-07T13:43:53;5.03;;;3.53;;
16270;SDS011;8243;49.048;8.396;2023-12-07T13:46:19;3.17;;;2.50;;
16270;SDS011;8243;49.048;8.396;2023-12-07T13:48:45;2.80;;;2.10;;
16270;SDS011;8243;49.048;8.396;2023-12-07T13:51:11;2.53;;;2.27;;
16270;SDS011;8243;49.048;8.396;2023-12-07T13:53:38;2.27;;;2.00;;
16270;SDS011;8243;49.048;8.396;2023-12-07T13:56:04;2.03;;;1.83;;
16270;SDS011;8243;49.048;8.396;2023-12-07T13:58:30;4.23;;;2.00;;
16270;SDS011;8243;49.048;8.396;2023-12-07T14:00:56;2.70;;;1.90;;
16270;SDS011;8243;49.048;8.396;2023-12-07T14:03:22;2.90;;;1.90;;
16270;SDS011;8243;49.048;8.396;2023-12-07T14:05:48;2.20;;;2.00;;
16270;SDS011;8243;49.048;8.396;2023-12-07T14:08:14;2.37;;;1.77;;
16270;SDS011;8243;49.048;8.396;2023-12-07T14:10:39;2.47;;;2.00;;
16270;SDS011;8243;49.048;8.396;2023-12-07T14:13:05;2.60;;;1.90;;
16270;SDS011;8243;49.048;8.396;2023-12-07T14:15:30;2.30;;;2.10;;
16270;SDS011;8243;49.048;8.396;2023-12-07T14:17:57;2.80;;;2.10;;
16270;SDS011;8243;49.048;8.396;2023-12-07T14:20:25;2.10;;;1.90;;
16270;SDS011;8243;49.048;8.396;2023-12-07T14:22:52;2.30;;;1.90;;
16270;SDS011;8243;49.048;8.396;2023-12-07T14:25:18;2.10;;;1.90;;
16270;SDS011;8243;49.048;8.396;2023-12-07T14:27:44;2.33;;;1.90;;
16270;SDS011;8243;49.048;8.396;2023-12-07T14:30:10;2.50;;;2.00;;
16270;SDS011;8243;49.048;8.396;2023-12-07T14:32:36;2.13;;;1.93;;
16270;SDS011;8243;49.048;8.396;2023-12-07T14:35:01;2.03;;;1.93;;
16270;SDS011;8243;49.048;8.396;2023-12-07T14:37:27;3.03;;;2.30;;
16270;SDS011;8243;49.048;8.396;2023-12-07T14:39:53;2.00;;;1.90;;
16270;SDS011;8243;49.048;8.396;2023-12-07T14:42:19;2.97;;;1.80;;
16270;SDS011;8243;49.048;8.396;2023-12-07T14:44:44;2.80;;;2.10;;
16270;SDS011;8243;49.048;8.396;2023-12-07T14:47:10;3.87;;;2.40;;